createdAt,value
2023-04-22T00:00:55.871Z,7.63
2023-04-22T00:03:23.864Z,7.73
2023-04-22T00:05:51.908Z,7.69
2023-04-22T00:08:21.231Z,7.72
2023-04-22T00:10:49.023Z,7.70
2023-04-22T00:13:16.801Z,7.79
2023-04-22T00:15:44.645Z,7.73
2023-04-22T00:18:14.173Z,7.73
2023-04-22T00:20:43.642Z,7.82
2023-04-22T00:23:11.561Z,7.94
2023-04-22T00:25:41.576Z,8.20
2023-04-22T00:28:09.662Z,8.23
2023-04-22T00:30:37.562Z,8.28
2023-04-22T00:33:05.487Z,8.23
2023-04-22T00:35:33.425Z,8.25
2023-04-22T00:38:01.275Z,8.25
2023-04-22T00:40:29.077Z,8.30
2023-04-22T00:43:00.745Z,8.31
2023-04-22T00:45:28.553Z,8.35
2023-04-22T00:47:57.626Z,8.35
2023-04-22T00:50:25.621Z,8.30
2023-04-22T00:52:53.430Z,8.28
2023-04-22T00:55:21.374Z,8.34
2023-04-22T00:57:51.541Z,8.37
2023-04-22T01:00:26.732Z,8.35
2023-04-22T01:02:55.774Z,8.31
2023-04-22T01:05:24.986Z,8.38
2023-04-22T01:07:52.794Z,8.45
2023-04-22T01:10:20.919Z,8.40
2023-04-22T01:12:48.702Z,8.41
2023-04-22T01:15:16.768Z,8.40
2023-04-22T01:17:46.434Z,8.37
2023-04-22T01:20:14.369Z,8.35
2023-04-22T01:22:43.558Z,8.34
2023-04-22T01:25:13.149Z,8.28
2023-04-22T01:27:41.813Z,8.30
2023-04-22T01:30:11.697Z,8.28
2023-04-22T01:32:40.702Z,8.30
2023-04-22T01:35:09.287Z,8.33
2023-04-22T01:37:37.229Z,8.27
2023-04-22T01:40:07.355Z,8.25
2023-04-22T01:42:36.799Z,8.21
2023-04-22T01:45:05.382Z,8.23
2023-04-22T01:47:33.239Z,8.25
2023-04-22T01:50:01.249Z,8.31
2023-04-22T01:52:29.114Z,8.24
2023-04-22T01:54:57.280Z,8.23
2023-04-22T01:57:25.081Z,8.23
2023-04-22T01:59:54.325Z,8.20
2023-04-22T02:02:23.550Z,8.18
2023-04-22T02:04:51.587Z,8.18
2023-04-22T02:07:19.558Z,8.14
2023-04-22T02:09:49.435Z,8.08
2023-04-22T02:12:18.586Z,8.03
2023-04-22T02:14:46.466Z,8.03
2023-04-22T02:17:17.889Z,8.06
2023-04-22T02:19:47.058Z,8.07
2023-04-22T02:22:14.994Z,8.27
2023-04-22T02:24:43.086Z,8.27
2023-04-22T02:27:10.896Z,8.30
2023-04-22T02:29:39.339Z,8.25
2023-04-22T02:32:08.203Z,8.23
2023-04-22T02:34:37.457Z,8.11
2023-04-22T02:37:05.525Z,8.00
2023-04-22T02:39:33.419Z,7.91
2023-04-22T02:42:02.448Z,8.01
2023-04-22T02:44:30.291Z,8.16
2023-04-22T02:46:58.168Z,8.25
2023-04-22T02:49:26.242Z,8.37
2023-04-22T02:51:55.796Z,8.42
2023-04-22T02:54:23.629Z,8.31
2023-04-22T02:56:51.499Z,8.24
2023-04-22T02:59:19.387Z,8.25
2023-04-22T03:01:47.700Z,8.17
2023-04-22T03:04:26.974Z,8.08
2023-04-22T03:06:56.189Z,8.03
2023-04-22T03:09:23.984Z,7.98
2023-04-22T03:11:51.773Z,8.03
2023-04-22T03:14:19.648Z,8.16
2023-04-22T03:16:47.680Z,8.17
2023-04-22T03:19:16.440Z,8.23
2023-04-22T03:21:44.303Z,8.24
2023-04-22T03:24:14.089Z,8.40
2023-04-22T03:26:47.697Z,8.42
2023-04-22T03:29:15.706Z,8.51
2023-04-22T03:31:44.213Z,8.47
2023-04-22T03:34:12.057Z,8.52
2023-04-22T03:36:39.920Z,8.52
2023-04-22T03:39:08.312Z,8.51
2023-04-22T03:41:37.509Z,8.38
2023-04-22T03:44:06.086Z,8.33
2023-04-22T03:46:35.611Z,8.23
2023-04-22T03:49:14.841Z,8.11
2023-04-22T03:51:44.300Z,8.00
2023-04-22T03:54:16.677Z,7.86
2023-04-22T03:56:52.576Z,7.82
2023-04-22T03:59:22.490Z,7.80
2023-04-22T04:01:52.649Z,7.73
2023-04-22T04:04:24.132Z,7.75
2023-04-22T04:06:57.571Z,7.67
2023-04-22T04:09:25.464Z,7.65
2023-04-22T04:11:54.706Z,7.62
2023-04-22T04:14:22.968Z,7.63
2023-04-22T04:16:52.596Z,7.56
2023-04-22T04:19:28.819Z,7.53
2023-04-22T04:21:57.013Z,7.55
2023-04-22T04:24:26.966Z,7.49
2023-04-22T04:27:03.134Z,7.61
2023-04-22T04:29:38.085Z,7.76
2023-04-22T04:32:12.373Z,7.66
2023-04-22T04:34:40.133Z,7.56
2023-04-22T04:37:09.740Z,7.59
2023-04-22T04:39:59.289Z,7.61
2023-04-22T04:42:34.662Z,7.70
2023-04-22T04:45:07.985Z,7.83
2023-04-22T04:47:35.990Z,7.84
2023-04-22T04:50:13.975Z,7.90
2023-04-22T04:52:42.199Z,8.11
2023-04-22T04:55:10.527Z,8.18
2023-04-22T04:57:39.855Z,8.42
2023-04-22T05:00:08.976Z,8.68
2023-04-22T05:02:37.350Z,8.88
2023-04-22T05:05:06.688Z,9.15
2023-04-22T05:07:35.451Z,9.29
2023-04-22T05:10:04.086Z,9.58
2023-04-22T05:12:33.902Z,9.64
2023-04-22T05:15:03.485Z,9.92
2023-04-22T05:17:31.278Z,10.09
2023-04-22T05:19:59.843Z,10.12
2023-04-22T05:22:27.737Z,10.35
2023-04-22T05:24:55.766Z,10.45
2023-04-22T05:27:24.852Z,10.46
2023-04-22T05:29:52.909Z,10.48
2023-04-22T05:32:29.826Z,10.59
2023-04-22T05:34:57.720Z,10.53
2023-04-22T05:37:25.832Z,10.49
2023-04-22T05:39:53.911Z,10.50
2023-04-22T05:42:22.182Z,10.52
2023-04-22T05:44:51.138Z,10.48
2023-04-22T05:47:19.189Z,10.53
2023-04-22T05:49:48.570Z,10.67
2023-04-22T05:52:20.540Z,10.77
2023-04-22T05:55:01.842Z,11.04
2023-04-22T05:57:29.759Z,11.43
2023-04-22T06:00:00.191Z,11.81
2023-04-22T06:02:28.629Z,12.45
2023-04-22T06:04:59.560Z,12.96
2023-04-22T06:07:28.559Z,13.05
2023-04-22T06:10:04.179Z,13.20
2023-04-22T06:12:34.284Z,13.74
2023-04-22T06:15:02.468Z,13.80
2023-04-22T06:17:30.679Z,13.83
2023-04-22T06:20:00.069Z,13.98
2023-04-22T06:22:27.789Z,14.08
2023-04-22T06:24:55.649Z,14.92
2023-04-22T06:27:23.460Z,16.05
2023-04-22T06:29:51.476Z,16.49
2023-04-22T06:32:19.399Z,17.08
2023-04-22T06:34:47.283Z,16.76
2023-04-22T06:37:16.925Z,16.69
2023-04-22T06:39:45.833Z,17.14
2023-04-22T06:42:32.071Z,18.38
2023-04-22T06:45:38.488Z,19.74
2023-04-22T06:48:24.337Z,21.02
2023-04-22T06:51:10.398Z,21.85
2023-04-22T06:53:39.730Z,22.81
2023-04-22T06:56:08.045Z,22.17
2023-04-22T06:58:35.882Z,21.68
2023-04-22T07:01:03.766Z,21.64
2023-04-22T07:03:31.854Z,22.08
2023-04-22T07:06:08.039Z,22.81
2023-04-22T07:08:36.079Z,23.29
2023-04-22T07:11:05.267Z,23.85
2023-04-22T07:13:38.801Z,24.30
2023-04-22T07:16:07.297Z,23.51
2023-04-22T07:18:36.040Z,23.63
2023-04-22T07:21:03.892Z,23.12
2023-04-22T07:23:31.697Z,23.34
2023-04-22T07:25:59.571Z,23.04
2023-04-22T07:28:28.732Z,23.38
2023-04-22T07:30:56.549Z,23.56
2023-04-22T07:33:24.567Z,23.69
2023-04-22T07:35:57.942Z,24.21
2023-04-22T07:38:27.179Z,24.33
2023-04-22T07:40:55.000Z,24.63
2023-04-22T07:43:22.794Z,23.89
2023-04-22T07:45:52.036Z,24.16
2023-04-22T07:48:19.885Z,23.79
2023-04-22T07:50:47.676Z,23.68
2023-04-22T07:53:17.320Z,23.37
2023-04-22T07:55:46.105Z,22.37
2023-04-22T07:58:13.898Z,21.78
2023-04-22T08:00:41.810Z,21.96
2023-04-22T08:03:11.362Z,22.25
2023-04-22T08:05:39.415Z,22.94
2023-04-22T08:08:07.290Z,23.49
2023-04-22T08:10:35.166Z,24.09
2023-04-22T08:13:03.032Z,24.30
2023-04-22T08:15:31.229Z,24.85
2023-04-22T08:17:59.170Z,25.01
2023-04-22T08:20:28.553Z,25.59
2023-04-22T08:23:00.183Z,26.37
2023-04-22T08:25:28.337Z,26.02
2023-04-22T08:27:56.221Z,25.18
2023-04-22T08:30:24.057Z,25.66
2023-04-22T08:32:53.368Z,25.83
2023-04-22T08:35:21.343Z,25.60
2023-04-22T08:37:50.536Z,26.30
2023-04-22T08:40:18.405Z,26.73
2023-04-22T08:42:46.353Z,28.18
2023-04-22T08:45:14.815Z,26.67
2023-04-22T08:47:43.689Z,25.87
2023-04-22T08:50:12.415Z,24.92
2023-04-22T08:52:40.623Z,24.34
2023-04-22T08:55:10.502Z,24.54
2023-04-22T08:57:39.964Z,24.78
2023-04-22T09:00:09.886Z,24.64
2023-04-22T09:02:39.020Z,23.45
2023-04-22T09:05:08.138Z,23.41
2023-04-22T09:07:36.457Z,23.17
2023-04-22T09:10:05.107Z,23.05
2023-04-22T09:12:34.229Z,22.80
2023-04-22T09:15:02.046Z,23.25
2023-04-22T09:17:34.401Z,23.52
2023-04-22T09:20:04.507Z,24.19
2023-04-22T09:22:39.837Z,25.32
2023-04-22T09:25:15.828Z,26.30
2023-04-22T09:27:49.711Z,26.98
2023-04-22T09:30:19.875Z,26.93
2023-04-22T09:32:55.733Z,26.24
2023-04-22T09:35:28.748Z,25.89
2023-04-22T09:37:56.839Z,25.46
2023-04-22T09:40:25.166Z,24.96
2023-04-22T09:42:56.197Z,25.59
2023-04-22T09:45:28.663Z,26.13
2023-04-22T09:47:57.761Z,25.98
2023-04-22T09:50:27.692Z,25.46
2023-04-22T09:52:57.065Z,25.54
2023-04-22T09:55:26.321Z,25.33
2023-04-22T09:57:57.018Z,24.56
2023-04-22T10:00:27.028Z,24.40
2023-04-22T10:02:54.936Z,24.41
2023-04-22T10:05:23.128Z,24.34
2023-04-22T10:07:51.379Z,24.54
2023-04-22T10:10:19.217Z,24.44
2023-04-22T10:12:48.795Z,24.37
2023-04-22T10:15:18.081Z,23.14
2023-04-22T10:17:47.932Z,23.48
2023-04-22T10:20:19.819Z,24.19
2023-04-22T10:22:48.824Z,23.96
2023-04-22T10:25:22.676Z,23.68
2023-04-22T10:27:55.442Z,23.62
2023-04-22T10:30:32.283Z,23.56
2023-04-22T10:33:35.195Z,23.15
2023-04-22T10:36:10.772Z,22.43
2023-04-22T10:38:39.693Z,22.59
2023-04-22T10:41:07.733Z,22.63
2023-04-22T10:43:49.659Z,23.10
2023-04-22T10:46:54.703Z,23.97
2023-04-22T10:49:25.207Z,24.51
2023-04-22T10:51:54.721Z,24.03
2023-04-22T10:55:02.678Z,23.82
2023-04-22T10:57:39.924Z,23.85
2023-04-22T11:03:12.476Z,23.76
2023-04-22T11:05:42.382Z,23.75
2023-04-22T11:08:17.582Z,23.46
2023-04-22T11:10:47.041Z,22.84
2023-04-22T11:13:16.521Z,22.08
2023-04-22T11:15:46.605Z,21.61
2023-04-22T11:18:18.500Z,21.02
2023-04-22T11:20:49.465Z,20.79
2023-04-22T11:23:28.614Z,20.86
2023-04-22T11:25:58.116Z,20.76
2023-04-22T11:28:26.231Z,20.85
2023-04-22T11:30:54.472Z,21.06
2023-04-22T11:33:22.340Z,21.13
2023-04-22T11:35:52.538Z,20.97
2023-04-22T11:38:20.353Z,20.51
2023-04-22T11:40:48.905Z,20.49
2023-04-22T11:43:18.565Z,20.34
2023-04-22T11:45:46.706Z,20.07
2023-04-22T11:48:16.619Z,20.31
2023-04-22T11:50:45.417Z,20.32
2023-04-22T11:53:19.208Z,20.08
2023-04-22T11:55:50.864Z,20.01
2023-04-22T11:58:20.686Z,19.83
2023-04-22T12:00:49.968Z,19.46
2023-04-22T12:03:19.701Z,19.23
2023-04-22T12:05:48.840Z,19.01
2023-04-22T12:08:19.831Z,18.72
2023-04-22T12:10:50.783Z,18.62
2023-04-22T12:13:22.825Z,18.65
2023-04-22T12:15:55.071Z,18.79
2023-04-22T12:18:30.177Z,18.92
2023-04-22T12:21:01.136Z,18.89
2023-04-22T12:23:30.392Z,19.09
2023-04-22T12:25:58.336Z,19.12
2023-04-22T12:28:26.132Z,19.24
2023-04-22T12:30:53.995Z,18.89
2023-04-22T12:33:21.847Z,18.95
2023-04-22T12:35:52.499Z,18.88
2023-04-22T12:38:20.632Z,18.89
2023-04-22T12:40:50.998Z,18.91
2023-04-22T12:43:21.486Z,18.82
2023-04-22T12:45:49.408Z,18.84
2023-04-22T12:48:17.599Z,18.68
2023-04-22T12:50:45.606Z,18.85
2023-04-22T12:53:13.512Z,18.81
2023-04-22T12:55:43.917Z,18.78
2023-04-22T12:58:14.894Z,18.67
2023-04-22T13:00:42.796Z,18.48
2023-04-22T13:03:11.520Z,18.27
2023-04-22T13:05:40.498Z,18.00
2023-04-22T13:08:08.458Z,17.69
2023-04-22T13:10:36.633Z,17.48
2023-04-22T13:13:17.941Z,17.36
2023-04-22T13:15:53.042Z,17.15
2023-04-22T13:18:22.448Z,17.04
2023-04-22T13:20:51.141Z,16.94
2023-04-22T13:23:19.846Z,16.92
2023-04-22T13:25:48.018Z,16.97
2023-04-22T13:28:15.974Z,16.91
2023-04-22T13:30:43.797Z,16.88
2023-04-22T13:33:13.007Z,16.95
2023-04-22T13:35:40.704Z,17.01
2023-04-22T13:38:08.914Z,17.01
2023-04-22T13:40:36.849Z,17.01
2023-04-22T13:43:04.966Z,17.01
2023-04-22T13:45:32.896Z,17.10
2023-04-22T13:48:00.789Z,17.06
2023-04-22T13:50:30.030Z,17.07
2023-04-22T13:52:58.008Z,17.01
2023-04-22T13:55:26.657Z,16.94
2023-04-22T13:57:54.610Z,17.01
2023-04-22T14:00:22.425Z,17.03
2023-04-22T14:02:50.504Z,17.08
2023-04-22T14:05:18.505Z,17.11
2023-04-22T14:07:47.683Z,17.08
2023-04-22T14:10:16.180Z,16.98
2023-04-22T14:12:44.330Z,17.06
2023-04-22T14:15:12.200Z,17.01
2023-04-22T14:17:40.347Z,17.14
2023-04-22T14:20:10.994Z,17.24
2023-04-22T14:22:39.063Z,17.24
2023-04-22T14:25:09.663Z,17.22
2023-04-22T14:27:37.551Z,17.24
2023-04-22T14:30:08.395Z,17.25
2023-04-22T14:32:37.304Z,17.25
2023-04-22T14:35:05.769Z,17.43
2023-04-22T14:37:35.620Z,17.51
2023-04-22T14:40:04.863Z,17.41
2023-04-22T14:42:34.445Z,17.28
2023-04-22T14:45:02.338Z,17.22
2023-04-22T14:47:30.657Z,17.18
2023-04-22T14:49:58.546Z,17.00
2023-04-22T14:52:26.418Z,17.00
2023-04-22T14:54:54.333Z,17.14
2023-04-22T14:57:22.166Z,17.15
2023-04-22T14:59:51.398Z,17.14
2023-04-22T15:02:19.174Z,17.12
2023-04-22T15:04:47.154Z,17.04
2023-04-22T15:07:15.064Z,16.97
2023-04-22T15:09:43.490Z,16.69
2023-04-22T15:12:11.508Z,16.42
2023-04-22T15:14:40.265Z,16.22
2023-04-22T15:17:09.736Z,16.04
2023-04-22T15:19:37.787Z,15.94
2023-04-22T15:22:05.724Z,15.91
2023-04-22T15:24:33.560Z,15.74
2023-04-22T15:27:02.880Z,15.57
2023-04-22T15:29:32.114Z,15.51
2023-04-22T15:31:59.855Z,15.47
2023-04-22T15:34:29.335Z,15.33
2023-04-22T15:36:57.247Z,15.23
2023-04-22T15:39:25.770Z,15.10
2023-04-22T15:41:53.583Z,15.04
2023-04-22T15:44:21.416Z,15.00
2023-04-22T15:46:49.328Z,14.93
2023-04-22T15:49:17.237Z,14.86
2023-04-22T15:51:46.581Z,14.87
2023-04-22T15:54:14.452Z,14.87
2023-04-22T15:56:42.397Z,14.87
2023-04-22T15:59:10.627Z,14.82
2023-04-22T16:01:40.549Z,14.80
2023-04-22T16:04:08.885Z,14.80
2023-04-22T16:06:38.080Z,14.80
2023-04-22T16:09:07.433Z,14.77
2023-04-22T16:11:35.582Z,14.71
2023-04-22T16:14:03.392Z,14.66
2023-04-22T16:16:32.446Z,14.69
2023-04-22T16:19:00.557Z,14.66
2023-04-22T16:21:28.687Z,14.66
2023-04-22T16:23:56.635Z,14.58
2023-04-22T16:26:25.859Z,14.59
2023-04-22T16:28:54.894Z,14.59
2023-04-22T16:31:23.644Z,14.59
2023-04-22T16:33:52.177Z,14.51
2023-04-22T16:36:20.022Z,14.52
2023-04-22T16:38:47.976Z,14.51
2023-04-22T16:41:15.971Z,14.54
2023-04-22T16:43:45.167Z,14.52
2023-04-22T16:46:13.095Z,14.48
2023-04-22T16:48:41.194Z,14.51
2023-04-22T16:51:09.014Z,14.54
2023-04-22T16:53:36.925Z,14.51
2023-04-22T16:56:04.970Z,14.45
2023-04-22T16:58:32.793Z,14.49
2023-04-22T17:01:01.997Z,14.46
2023-04-22T17:03:30.027Z,14.46
2023-04-22T17:05:57.945Z,14.45
2023-04-22T17:08:25.803Z,14.46
2023-04-22T17:10:53.663Z,14.49
2023-04-22T17:13:21.496Z,14.48
2023-04-22T17:15:49.417Z,14.46
2023-04-22T17:18:18.677Z,14.52
2023-04-22T17:20:46.497Z,14.52
2023-04-22T17:23:14.460Z,14.51
2023-04-22T17:25:42.349Z,14.48
2023-04-22T17:28:11.502Z,14.49
2023-04-22T17:30:39.392Z,14.51
2023-04-22T17:33:07.333Z,14.49
2023-04-22T17:35:36.626Z,14.49
2023-04-22T17:38:04.366Z,14.49
2023-04-22T17:40:32.354Z,14.51
2023-04-22T17:43:00.289Z,14.41
2023-04-22T17:45:28.280Z,14.08
2023-04-22T17:47:56.159Z,13.63
2023-04-22T17:50:24.074Z,13.33
2023-04-22T17:52:53.302Z,13.16
2023-04-22T17:55:21.061Z,13.08
2023-04-22T17:57:48.941Z,13.01
2023-04-22T18:00:18.091Z,12.82
2023-04-22T18:02:46.400Z,12.69
2023-04-22T18:05:14.576Z,12.61
2023-04-22T18:07:42.431Z,12.60
2023-04-22T18:10:12.693Z,12.51
2023-04-22T18:12:42.133Z,12.48
2023-04-22T18:15:10.318Z,12.40
2023-04-22T18:17:38.131Z,12.41
2023-04-22T18:20:17.456Z,12.44
2023-04-22T18:22:47.283Z,12.40
2023-04-22T18:25:16.612Z,12.34
2023-04-22T18:27:44.757Z,12.38
2023-04-22T18:30:12.816Z,12.40
2023-04-22T18:32:40.804Z,12.36
2023-04-22T18:35:09.543Z,12.34
2023-04-22T18:37:37.457Z,12.36
2023-04-22T18:40:07.062Z,12.36
2023-04-22T18:42:36.786Z,12.30
2023-04-22T18:45:06.777Z,12.31
2023-04-22T18:47:34.806Z,12.36
2023-04-22T18:50:02.678Z,12.29
2023-04-22T18:52:30.596Z,12.29
2023-04-22T18:54:58.578Z,12.26
2023-04-22T18:57:26.425Z,12.31
2023-04-22T18:59:55.818Z,12.34
2023-04-22T19:02:23.808Z,12.19
2023-04-22T19:04:53.586Z,12.02
2023-04-22T19:07:21.542Z,11.87
2023-04-22T19:09:49.403Z,11.79
2023-04-22T19:12:19.415Z,11.71
2023-04-22T19:14:48.237Z,11.63
2023-04-22T19:17:17.494Z,11.49
2023-04-22T19:19:46.438Z,11.34
2023-04-22T19:22:16.140Z,11.28
2023-04-22T19:24:44.028Z,11.24
2023-04-22T19:27:13.106Z,11.18
2023-04-22T19:29:41.837Z,11.12
2023-04-22T19:32:10.905Z,11.00
2023-04-22T19:34:40.453Z,10.99
2023-04-22T19:37:08.464Z,10.94
2023-04-22T19:39:36.672Z,10.96
2023-04-22T19:42:04.685Z,10.96
2023-04-22T19:44:32.763Z,10.99
2023-04-22T19:47:00.877Z,10.94
2023-04-22T19:49:31.074Z,11.00
2023-04-22T19:52:02.678Z,10.91
2023-04-22T19:54:31.000Z,10.89
2023-04-22T19:56:59.504Z,10.81
2023-04-22T19:59:31.500Z,10.70
2023-04-22T20:01:59.794Z,10.63
2023-04-22T20:04:28.502Z,10.59
2023-04-22T20:06:57.486Z,10.56
2023-04-22T20:09:27.714Z,10.48
2023-04-22T20:11:55.819Z,10.42
2023-04-22T20:14:23.860Z,10.36
2023-04-22T20:16:52.247Z,10.32
2023-04-22T20:19:20.763Z,10.28
2023-04-22T20:21:49.654Z,10.29
2023-04-22T20:24:19.621Z,10.30
2023-04-22T20:26:49.606Z,10.26
2023-04-22T20:29:18.792Z,10.16
2023-04-22T20:31:46.939Z,10.12
2023-04-22T20:34:14.898Z,10.08
2023-04-22T20:36:43.690Z,10.05
2023-04-22T20:39:14.433Z,10.01
2023-04-22T20:41:42.886Z,9.94
2023-04-22T20:44:12.060Z,9.94
2023-04-22T20:46:40.101Z,10.02
2023-04-22T20:49:08.153Z,9.97
2023-04-22T20:51:36.105Z,9.94
2023-04-22T20:54:06.209Z,9.89
2023-04-22T20:56:38.080Z,9.94
2023-04-22T20:59:05.975Z,9.89
2023-04-22T21:01:35.759Z,9.89
2023-04-22T21:04:04.587Z,9.92
2023-04-22T21:06:35.089Z,9.89
2023-04-22T21:09:04.272Z,9.87
2023-04-22T21:11:32.579Z,9.84
2023-04-22T21:14:00.832Z,9.88
2023-04-22T21:16:31.877Z,9.82
2023-04-22T21:19:01.771Z,9.77
2023-04-22T21:21:33.948Z,9.70
2023-04-22T21:24:02.683Z,9.64
2023-04-22T21:26:30.708Z,9.68
2023-04-22T21:28:59.456Z,9.73
2023-04-22T21:31:28.070Z,9.75
2023-04-22T21:33:55.991Z,9.73
2023-04-22T21:36:26.482Z,9.75
2023-04-22T21:38:54.901Z,9.75
2023-04-22T21:41:23.348Z,9.64
2023-04-22T21:43:51.149Z,9.50
2023-04-22T21:46:21.931Z,9.58
2023-04-22T21:48:49.850Z,9.51
2023-04-22T21:51:17.661Z,9.47
2023-04-22T21:53:46.862Z,9.51
2023-04-22T21:56:14.734Z,9.46
2023-04-22T21:58:42.627Z,9.41
2023-04-22T22:01:10.449Z,9.36
2023-04-22T22:03:38.396Z,9.34
2023-04-22T22:06:06.777Z,9.30
2023-04-22T22:08:34.616Z,9.26
2023-04-22T22:11:07.011Z,9.19
2023-04-22T22:13:36.026Z,9.12
2023-04-22T22:16:03.925Z,9.00
2023-04-22T22:18:31.748Z,8.95
2023-04-22T22:20:59.600Z,8.89
2023-04-22T22:23:27.401Z,8.85
2023-04-22T22:25:55.610Z,8.86
2023-04-22T22:28:24.771Z,8.95
2023-04-22T22:30:52.564Z,8.89
2023-04-22T22:33:20.493Z,8.95
2023-04-22T22:35:48.339Z,8.99
2023-04-22T22:38:16.136Z,9.02
2023-04-22T22:40:44.110Z,9.12
2023-04-22T22:43:13.434Z,9.19
2023-04-22T22:45:42.501Z,9.29
2023-04-22T22:48:10.464Z,9.34
2023-04-22T22:50:38.925Z,9.46
2023-04-22T22:53:06.791Z,9.41
2023-04-22T22:55:34.784Z,9.31
2023-04-22T22:58:02.615Z,9.20
2023-04-22T23:00:30.622Z,9.20
2023-04-22T23:03:00.061Z,9.27
2023-04-22T23:05:28.823Z,9.27
2023-04-22T23:07:56.586Z,9.33
2023-04-22T23:10:24.386Z,9.50
2023-04-22T23:12:52.228Z,9.62
2023-04-22T23:15:20.082Z,9.75
2023-04-22T23:17:48.027Z,9.88
2023-04-22T23:20:18.252Z,9.88
2023-04-22T23:22:47.083Z,9.82
2023-04-22T23:25:16.646Z,9.87
2023-04-22T23:27:45.607Z,9.82
2023-04-22T23:30:14.237Z,9.94
2023-04-22T23:32:44.127Z,9.88
2023-04-22T23:35:13.893Z,9.85
2023-04-22T23:37:45.444Z,9.89
2023-04-22T23:40:14.205Z,9.85
2023-04-22T23:42:41.986Z,9.87
2023-04-22T23:45:11.248Z,9.85
2023-04-22T23:47:38.977Z,9.84
2023-04-22T23:50:07.912Z,9.75
2023-04-22T23:52:40.606Z,9.87
2023-04-22T23:55:11.662Z,9.84
2023-04-22T23:57:40.101Z,9.79
